Terminal Aerodrome Forecast
Issued by NWS Twin Cities, MN

Home | Current Version | Previous Version | Graphics & Text | Print | Product List | Glossary On
Versions: 1 2 3 4 5 6 7 8 9 10 11 12 13 14 15 16 17 18 19 20 21 22 23 24 25 26 27 28 29 30 31 32
000
FTUS43 KMPX 280800 AAB
TAFMSP
TAF AMD
KMSP 280852Z 2809/2912 13009KT 6SM BR SCT020 OVC060
     FM281500 12006KT 6SM BR SCT015 OVC040
      TEMPO 2817/2820 4SM -FZDZPL BR BKN020
     FM282000 11005KT P6SM SCT009 OVC018
     FM290200 12006KT P6SM SCT015 OVC035=

USA.gov is the U.S. government's official web portal to all federal, state and local government web resources and services.